Time;durP1;ratioP1;P1;durP2;ratioP2;P2;SDS_P1;SDS_P2;PMS_P1;PMS_P2;Temp;Humidity;BMP_temperature;BMP_pressure;BME280_temperature;BME280_humidity;BME280_pressure;Samples;Min_cycle;Max_cycle;Signal;HPM_P1;HPM_P2
2021/06/11 00:00:10;;;;;;;;;;;24.90;39.60;;;;;;1477401;40;21040;-61
2021/06/11 00:01:31;;;;;;;;;;;24.90;39.80;;;;;;1476976;40;19932;-61
2021/06/11 00:02:52;;;;;;;;;;;24.80;39.80;;;;;;1476834;40;19936;-61
2021/06/11 00:04:13;;;;;;;;;;;24.80;39.90;;;;;;1477301;40;19949;-61
2021/06/11 00:05:34;;;;;;;;;;;24.90;40.30;;;;;;1477244;40;19940;-60
2021/06/11 00:06:55;;;;;;;;;;;24.80;40.40;;;;;;1477038;40;20169;-60
2021/06/11 00:08:16;;;;;;;;;;;24.80;40.50;;;;;;1477017;40;19936;-61
2021/06/11 00:09:36;;;;;;;;;;;24.80;40.30;;;;;;1477177;40;19993;-61
2021/06/11 00:10:57;;;;;;;;;;;24.80;40.60;;;;;;1477942;40;19944;-61
2021/06/11 00:12:18;;;;;;;;;;;24.80;40.70;;;;;;1476547;40;19940;-61
2021/06/11 00:13:39;;;;;;;;;;;24.80;40.80;;;;;;1477740;40;19936;-61
2021/06/11 00:15:00;;;;;;;;;;;24.70;40.90;;;;;;1477233;40;19945;-61
2021/06/11 00:16:21;;;;;;;;;;;24.70;40.90;;;;;;1475819;40;19952;-61
2021/06/11 00:17:42;;;;;;;;;;;24.70;40.90;;;;;;1477421;40;19937;-61
2021/06/11 00:19:03;;;;;;;;;;;24.70;41.00;;;;;;1477960;40;20426;-60
2021/06/11 00:20:24;;;;;;;;;;;24.70;41.10;;;;;;1478594;40;19933;-61
2021/06/11 00:21:45;;;;;;;;;;;24.70;41.10;;;;;;1474734;40;19951;-61
2021/06/11 00:23:05;;;;;;;;;;;24.70;41.20;;;;;;1474859;40;19947;-61
2021/06/11 00:24:27;;;;;;;;;;;24.70;41.20;;;;;;1477634;40;19955;-61
2021/06/11 00:25:47;;;;;;;;;;;24.60;41.20;;;;;;1477122;40;19933;-61
2021/06/11 00:27:08;;;;;;;;;;;24.60;41.30;;;;;;1477904;40;20347;-61
2021/06/11 00:28:29;;;;;;;;;;;24.60;41.30;;;;;;1478116;40;19936;-61
2021/06/11 00:29:50;;;;;;;;;;;24.60;41.30;;;;;;1478270;40;20160;-61
2021/06/11 00:31:11;;;;;;;;;;;24.60;41.30;;;;;;1477029;40;20299;-61
2021/06/11 00:32:32;;;;;;;;;;;24.60;41.30;;;;;;1477886;40;20371;-60
2021/06/11 00:33:53;;;;;;;;;;;24.50;41.40;;;;;;1477957;40;20015;-60
2021/06/11 00:35:14;;;;;;;;;;;24.60;41.10;;;;;;1475303;40;19943;-60
2021/06/11 00:36:35;;;;;;;;;;;24.50;40.60;;;;;;1477975;40;20031;-61
2021/06/11 00:37:55;;;;;;;;;;;24.50;40.90;;;;;;1477669;40;19940;-61
2021/06/11 00:39:16;;;;;;;;;;;24.50;40.80;;;;;;1476480;40;20147;-61
2021/06/11 00:40:39;;;;;;;;;;;24.50;40.90;;;;;;1477680;40;20376;-62
2021/06/11 00:42:01;;;;;;;;;;;24.50;40.80;;;;;;1478618;40;20190;-61
2021/06/11 00:43:22;;;;;;;;;;;24.50;40.90;;;;;;1477581;40;19959;-60
2021/06/11 00:44:43;;;;;;;;;;;24.40;40.90;;;;;;1477715;40;20014;-61
2021/06/11 00:46:03;;;;;;;;;;;24.40;41.20;;;;;;1474851;40;19937;-61
2021/06/11 00:47:24;;;;;;;;;;;24.40;41.40;;;;;;1477809;40;19984;-61
2021/06/11 00:48:45;;;;;;;;;;;24.30;41.40;;;;;;1476848;40;19981;-61
2021/06/11 00:50:07;;;;;;;;;;;24.30;41.50;;;;;;1476737;40;19951;-61
2021/06/11 00:51:28;;;;;;;;;;;24.30;41.50;;;;;;1478143;40;19985;-61
2021/06/11 00:52:50;;;;;;;;;;;24.30;41.70;;;;;;1477311;40;19939;-60
2021/06/11 00:54:12;;;;;;;;;;;24.30;41.70;;;;;;1476920;40;20026;-61
2021/06/11 00:55:33;;;;;;;;;;;24.30;41.50;;;;;;1477195;40;19948;-61
2021/06/11 00:56:53;;;;;;;;;;;24.20;41.70;;;;;;1477923;40;19980;-60
2021/06/11 00:58:16;;;;;;;;;;;24.30;41.80;;;;;;1477047;40;19959;-61
2021/06/11 00:59:39;;;;;;;;;;;24.30;42.00;;;;;;1476484;40;20033;-61
2021/06/11 01:01:00;;;;;;;;;;;24.30;42.10;;;;;;1478178;40;19953;-61
2021/06/11 01:02:22;;;;;;;;;;;24.20;42.10;;;;;;1477545;40;20026;-61
2021/06/11 01:03:43;;;;;;;;;;;24.20;42.20;;;;;;1477693;40;19936;-61
2021/06/11 01:05:04;;;;;;;;;;;24.20;42.30;;;;;;1477241;40;19932;-61
2021/06/11 01:06:25;;;;;;;;;;;24.20;42.30;;;;;;1477699;40;19937;-61
2021/06/11 01:07:48;;;;;;;;;;;24.20;42.00;;;;;;1478421;40;20008;-61
2021/06/11 01:09:09;;;;;;;;;;;24.20;42.50;;;;;;1477819;40;19940;-61
2021/06/11 01:10:31;;;;;;;;;;;24.10;42.20;;;;;;1478116;40;19988;-61
2021/06/11 01:11:51;;;;;;;;;;;24.10;42.30;;;;;;1477898;40;19945;-61
2021/06/11 01:13:13;;;;;;;;;;;24.10;42.20;;;;;;1477337;40;19980;-61
2021/06/11 01:14:35;;;;;;;;;;;24.10;42.40;;;;;;1477916;40;20000;-61
2021/06/11 01:15:56;;;;;;;;;;;24.10;42.30;;;;;;1477896;40;19951;-61
2021/06/11 01:17:17;;;;;;;;;;;24.10;42.50;;;;;;1478310;40;19936;-61
2021/06/11 01:18:38;;;;;;;;;;;24.10;42.10;;;;;;1478487;40;20029;-61
2021/06/11 01:19:59;;;;;;;;;;;24.10;42.50;;;;;;1477489;40;19958;-61
2021/06/11 01:21:20;;;;;;;;;;;24.00;42.60;;;;;;1477935;40;19962;-61
2021/06/11 01:22:41;;;;;;;;;;;24.00;42.60;;;;;;1478573;40;19940;-61
2021/06/11 01:24:13;;;;;;;;;;;24.00;42.60;;;;;;1478987;40;19987;-61
2021/06/11 01:25:54;;;;;;;;;;;24.00;42.70;;;;;;1473999;40;19976;-61
2021/06/11 01:27:15;;;;;;;;;;;24.00;42.30;;;;;;1474792;40;20017;-61
2021/06/11 01:28:36;;;;;;;;;;;23.90;42.10;;;;;;1477478;40;19937;-61
2021/06/11 01:30:04;;;;;;;;;;;23.90;42.60;;;;;;1478002;40;19953;-61
2021/06/11 01:31:27;;;;;;;;;;;23.90;42.90;;;;;;1478424;40;20040;-61
2021/06/11 01:32:50;;;;;;;;;;;23.90;43.10;;;;;;1478164;40;20030;-60
2021/06/11 01:34:16;;;;;;;;;;;23.90;43.50;;;;;;1477786;40;20292;-61
2021/06/11 01:35:41;;;;;;;;;;;23.90;43.10;;;;;;1478088;40;19943;-61
2021/06/11 01:37:09;;;;;;;;;;;23.90;43.20;;;;;;1478142;40;20313;-61
2021/06/11 01:38:36;;;;;;;;;;;23.90;43.20;;;;;;1478546;40;20290;-61
2021/06/11 01:39:57;;;;;;;;;;;23.90;43.00;;;;;;1477880;40;19976;-61
2021/06/11 01:41:19;;;;;;;;;;;23.80;42.80;;;;;;1478426;40;19956;-61
2021/06/11 01:42:41;;;;;;;;;;;23.80;42.70;;;;;;1478303;40;19937;-61
2021/06/11 01:44:03;;;;;;;;;;;23.80;42.70;;;;;;1477970;40;20257;-61
2021/06/11 01:45:23;;;;;;;;;;;23.80;42.90;;;;;;1477872;40;19948;-60
2021/06/11 01:46:45;;;;;;;;;;;23.80;43.00;;;;;;1478162;40;20186;-61
2021/06/11 01:48:06;;;;;;;;;;;23.80;43.20;;;;;;1478015;40;19940;-61
2021/06/11 01:49:28;;;;;;;;;;;23.80;43.20;;;;;;1478615;39;19968;-60
2021/06/11 01:50:50;;;;;;;;;;;23.80;43.30;;;;;;1477838;40;20509;-60
2021/06/11 01:52:11;;;;;;;;;;;23.70;43.30;;;;;;1477411;40;20403;-61
2021/06/11 01:53:33;;;;;;;;;;;23.80;43.40;;;;;;1478906;39;19949;-61
2021/06/11 01:54:54;;;;;;;;;;;23.70;43.30;;;;;;1478749;40;19942;-61
2021/06/11 01:56:17;;;;;;;;;;;23.70;43.40;;;;;;1477584;40;19937;-61
2021/06/11 01:57:40;;;;;;;;;;;23.70;43.40;;;;;;1477763;40;19948;-61
2021/06/11 01:59:01;;;;;;;;;;;23.70;42.70;;;;;;1477798;40;19940;-61
2021/06/11 02:00:23;;;;;;;;;;;23.70;42.50;;;;;;1477809;40;19944;-61
2021/06/11 02:01:45;;;;;;;;;;;23.70;42.50;;;;;;1478270;40;19975;-61
2021/06/11 02:03:06;;;;;;;;;;;23.60;42.80;;;;;;1473523;40;19936;-60
2021/06/11 02:04:27;;;;;;;;;;;23.60;43.10;;;;;;1476008;40;19932;-61
2021/06/11 02:05:49;;;;;;;;;;;23.50;43.20;;;;;;1478022;40;19987;-60
2021/06/11 02:07:10;;;;;;;;;;;23.50;43.30;;;;;;1478296;40;19944;-61
2021/06/11 02:08:31;;;;;;;;;;;23.60;43.60;;;;;;1478263;40;19948;-60
2021/06/11 02:09:52;;;;;;;;;;;23.50;43.40;;;;;;1478001;40;19936;-61
2021/06/11 02:11:13;;;;;;;;;;;23.60;43.60;;;;;;1477778;40;20503;-61
2021/06/11 02:12:34;;;;;;;;;;;23.50;43.50;;;;;;1477582;40;19968;-60
2021/06/11 02:13:55;;;;;;;;;;;23.40;43.50;;;;;;1478020;40;19940;-60
2021/06/11 02:15:16;;;;;;;;;;;23.40;43.60;;;;;;1478047;40;19970;-61
2021/06/11 02:16:37;;;;;;;;;;;23.40;43.60;;;;;;1477768;40;20421;-61
2021/06/11 02:17:58;;;;;;;;;;;23.40;43.70;;;;;;1478735;39;20579;-60
2021/06/11 02:19:21;;;;;;;;;;;23.40;43.70;;;;;;1477957;40;19936;-61
2021/06/11 02:20:42;;;;;;;;;;;23.30;43.80;;;;;;1478408;40;19947;-60
2021/06/11 02:22:03;;;;;;;;;;;23.30;43.70;;;;;;1478010;40;19936;-61
2021/06/11 02:23:24;;;;;;;;;;;23.30;43.70;;;;;;1477488;40;19944;-61
2021/06/11 02:24:44;;;;;;;;;;;23.20;43.70;;;;;;1478127;40;19936;-61
2021/06/11 02:26:08;;;;;;;;;;;23.30;43.90;;;;;;1477536;40;19941;-61
2021/06/11 02:27:29;;;;;;;;;;;23.20;43.80;;;;;;1477798;40;19941;-60
2021/06/11 02:28:50;;;;;;;;;;;23.20;43.90;;;;;;1477595;40;19942;-61
2021/06/11 02:30:12;;;;;;;;;;;23.20;43.90;;;;;;1477800;40;19971;-61
2021/06/11 02:31:34;;;;;;;;;;;23.10;43.80;;;;;;1477419;40;20034;-61
2021/06/11 02:32:55;;;;;;;;;;;23.10;44.00;;;;;;1476651;40;20238;-61
2021/06/11 02:34:15;;;;;;;;;;;23.10;43.40;;;;;;1477809;40;19937;-61
2021/06/11 02:35:36;;;;;;;;;;;23.10;43.00;;;;;;1477857;40;19956;-61
2021/06/11 02:36:58;;;;;;;;;;;23.10;43.10;;;;;;1477597;40;19956;-61
2021/06/11 02:38:18;;;;;;;;;;;23.10;43.10;;;;;;1477483;40;19945;-61
2021/06/11 02:39:39;;;;;;;;;;;23.10;43.40;;;;;;1477943;40;20087;-61
2021/06/11 02:41:00;;;;;;;;;;;23.00;43.50;;;;;;1476882;40;19933;-61
2021/06/11 02:42:21;;;;;;;;;;;23.00;43.40;;;;;;1477360;40;19947;-60
2021/06/11 02:43:43;;;;;;;;;;;23.00;43.70;;;;;;1477888;40;19939;-60
2021/06/11 02:45:06;;;;;;;;;;;23.00;43.70;;;;;;1477976;40;19936;-61
2021/06/11 02:46:32;;;;;;;;;;;23.00;43.40;;;;;;1477768;40;20024;-61
2021/06/11 02:47:56;;;;;;;;;;;22.90;43.50;;;;;;1477445;40;19973;-61
2021/06/11 02:49:30;;;;;;;;;;;22.90;43.50;;;;;;1477208;40;20356;-60
2021/06/11 02:51:03;;;;;;;;;;;22.90;43.80;;;;;;1477280;40;19945;-61
2021/06/11 02:52:24;;;;;;;;;;;22.90;43.70;;;;;;1476422;40;19995;-61
2021/06/11 02:53:46;;;;;;;;;;;22.90;43.80;;;;;;1477347;40;20485;-60
2021/06/11 02:55:07;;;;;;;;;;;22.90;43.60;;;;;;1477950;40;19937;-61
2021/06/11 02:56:41;;;;;;;;;;;22.80;43.30;;;;;;1477301;40;20045;-61
2021/06/11 02:58:18;;;;;;;;;;;22.80;43.50;;;;;;1477705;40;19945;-61
2021/06/11 02:59:41;;;;;;;;;;;22.80;43.80;;;;;;1478468;40;19970;-61
2021/06/11 03:01:03;;;;;;;;;;;22.80;44.10;;;;;;1478006;40;20506;-60
2021/06/11 03:02:30;;;;;;;;;;;22.80;43.80;;;;;;1477545;40;19955;-61
2021/06/11 03:03:52;;;;;;;;;;;22.80;43.90;;;;;;1477746;40;20691;-61
2021/06/11 03:05:15;;;;;;;;;;;22.70;43.90;;;;;;1477752;40;19937;-61
2021/06/11 03:06:36;;;;;;;;;;;22.70;43.90;;;;;;1477622;40;19941;-60
2021/06/11 03:07:59;;;;;;;;;;;22.70;44.00;;;;;;1477480;40;20034;-61
2021/06/11 03:09:22;;;;;;;;;;;22.60;43.90;;;;;;1478263;40;19941;-60
2021/06/11 03:10:45;;;;;;;;;;;22.60;44.20;;;;;;1477677;40;21087;-60
2021/06/11 03:12:06;;;;;;;;;;;22.60;44.60;;;;;;1474778;40;20030;-61
2021/06/11 03:13:28;;;;;;;;;;;22.60;44.60;;;;;;1473477;40;19936;-61
2021/06/11 03:14:49;;;;;;;;;;;22.60;44.70;;;;;;1476400;40;19940;-60
2021/06/11 03:16:10;;;;;;;;;;;22.60;44.80;;;;;;1477820;40;20033;-60
2021/06/11 03:17:33;;;;;;;;;;;22.60;44.90;;;;;;1477242;40;19933;-60
2021/06/11 03:18:54;;;;;;;;;;;22.60;44.80;;;;;;1477582;40;19936;-60
2021/06/11 03:20:17;;;;;;;;;;;22.60;45.00;;;;;;1478240;40;19932;-61
2021/06/11 03:21:41;;;;;;;;;;;22.50;45.00;;;;;;1478071;40;19955;-60
2021/06/11 03:23:10;;;;;;;;;;;22.50;45.10;;;;;;1477301;40;19937;-60
2021/06/11 03:24:33;;;;;;;;;;;22.50;45.10;;;;;;1477851;40;19952;-61
2021/06/11 03:25:56;;;;;;;;;;;22.50;44.60;;;;;;1476993;40;20232;-61
2021/06/11 03:27:24;;;;;;;;;;;22.50;44.90;;;;;;1477823;40;19937;-60
2021/06/11 03:28:47;;;;;;;;;;;22.50;45.10;;;;;;1477476;40;19937;-60
2021/06/11 03:30:09;;;;;;;;;;;22.50;45.20;;;;;;1478012;40;19945;-61
2021/06/11 03:31:36;;;;;;;;;;;22.40;45.30;;;;;;1477319;40;20218;-60
2021/06/11 03:33:09;;;;;;;;;;;22.50;45.40;;;;;;1477826;40;19979;-60
2021/06/11 03:34:36;;;;;;;;;;;22.50;45.10;;;;;;1477278;40;20050;-61
2021/06/11 03:36:00;;;;;;;;;;;22.40;45.70;;;;;;1478583;40;19937;-60
2021/06/11 03:37:22;;;;;;;;;;;22.40;45.30;;;;;;1477367;40;20321;-60
2021/06/11 03:38:45;;;;;;;;;;;22.40;45.40;;;;;;1477748;40;19944;-60
2021/06/11 03:40:09;;;;;;;;;;;22.40;45.50;;;;;;1476575;40;19940;-61
2021/06/11 03:41:32;;;;;;;;;;;22.40;45.50;;;;;;1477064;40;20261;-60
2021/06/11 03:42:53;;;;;;;;;;;22.40;45.30;;;;;;1478122;40;19936;-61
2021/06/11 03:44:16;;;;;;;;;;;22.30;45.50;;;;;;1477801;40;19941;-61
2021/06/11 03:45:39;;;;;;;;;;;22.40;45.50;;;;;;1478334;40;19940;-60
2021/06/11 03:47:00;;;;;;;;;;;22.40;45.20;;;;;;1478274;40;20022;-60
2021/06/11 03:48:21;;;;;;;;;;;22.30;45.00;;;;;;1475186;40;19943;-60
2021/06/11 03:49:43;;;;;;;;;;;22.30;45.10;;;;;;1477182;40;20030;-60
2021/06/11 03:51:04;;;;;;;;;;;22.30;45.40;;;;;;1473298;40;19959;-60
2021/06/11 03:52:26;;;;;;;;;;;22.30;45.70;;;;;;1477262;40;19990;-61
2021/06/11 03:53:48;;;;;;;;;;;22.30;45.80;;;;;;1478150;40;19937;-60
2021/06/11 03:55:09;;;;;;;;;;;22.20;45.80;;;;;;1478646;40;19937;-61
2021/06/11 03:56:32;;;;;;;;;;;22.30;46.00;;;;;;1476974;40;19956;-61
2021/06/11 03:57:57;;;;;;;;;;;22.20;46.00;;;;;;1478108;40;20026;-60
2021/06/11 03:59:19;;;;;;;;;;;22.20;46.00;;;;;;1478342;40;19937;-60
2021/06/11 04:00:42;;;;;;;;;;;22.20;46.20;;;;;;1478527;40;19936;-60
2021/06/11 04:02:04;;;;;;;;;;;22.20;46.20;;;;;;1477453;40;20618;-61
2021/06/11 04:03:25;;;;;;;;;;;22.20;46.10;;;;;;1479169;40;19945;-60
2021/06/11 04:04:46;;;;;;;;;;;22.20;46.10;;;;;;1478322;40;19944;-60
2021/06/11 04:06:09;;;;;;;;;;;22.20;46.40;;;;;;1478314;40;19936;-60
2021/06/11 04:07:37;;;;;;;;;;;22.20;46.20;;;;;;1477883;40;19944;-60
2021/06/11 04:09:04;;;;;;;;;;;22.20;46.40;;;;;;1477851;40;19946;-60
2021/06/11 04:10:37;;;;;;;;;;;22.20;46.30;;;;;;1477574;40;19975;-61
2021/06/11 04:12:00;;;;;;;;;;;22.10;46.30;;;;;;1478423;40;19997;-60
2021/06/11 04:13:28;;;;;;;;;;;22.10;46.00;;;;;;1477577;40;20000;-60
2021/06/11 04:14:50;;;;;;;;;;;22.10;45.80;;;;;;1477040;40;20018;-61
2021/06/11 04:16:13;;;;;;;;;;;22.10;46.00;;;;;;1474358;40;20342;-60
2021/06/11 04:17:39;;;;;;;;;;;22.00;45.90;;;;;;1473367;40;19944;-60
2021/06/11 04:19:00;;;;;;;;;;;22.10;46.20;;;;;;1472921;40;19951;-61
2021/06/11 04:20:24;;;;;;;;;;;22.10;46.40;;;;;;1473798;40;19944;-61
2021/06/11 04:21:47;;;;;;;;;;;22.10;46.40;;;;;;1470545;40;19941;-61
2021/06/11 04:23:08;;;;;;;;;;;22.10;46.30;;;;;;1473309;40;20364;-61
2021/06/11 04:24:31;;;;;;;;;;;22.10;46.30;;;;;;1473209;40;20198;-61
2021/06/11 04:25:56;;;;;;;;;;;22.10;46.40;;;;;;1473259;40;19947;-60
2021/06/11 04:27:19;;;;;;;;;;;22.10;46.20;;;;;;1473371;40;19963;-60
2021/06/11 04:28:40;;;;;;;;;;;22.10;46.10;;;;;;1473334;40;19936;-61
2021/06/11 04:30:01;;;;;;;;;;;22.10;45.90;;;;;;1473453;40;19933;-61
2021/06/11 04:31:22;;;;;;;;;;;22.10;46.00;;;;;;1472772;40;19980;-60
2021/06/11 04:32:43;;;;;;;;;;;22.10;45.90;;;;;;1472314;40;20034;-60
2021/06/11 04:34:04;;;;;;;;;;;22.10;46.30;;;;;;1473220;40;19937;-60
2021/06/11 04:35:27;;;;;;;;;;;22.10;46.30;;;;;;1473893;40;20030;-60
2021/06/11 04:36:48;;;;;;;;;;;22.10;46.30;;;;;;1472904;40;19974;-60
2021/06/11 04:38:08;;;;;;;;;;;22.10;46.30;;;;;;1472334;40;19937;-61
2021/06/11 04:39:29;;;;;;;;;;;22.10;46.60;;;;;;1474173;40;20403;-60
2021/06/11 04:40:51;;;;;;;;;;;22.10;46.70;;;;;;1474121;40;19953;-61
2021/06/11 04:42:12;;;;;;;;;;;22.10;46.50;;;;;;1472953;40;19999;-61
2021/06/11 04:43:32;;;;;;;;;;;22.10;47.00;;;;;;1473316;40;19953;-61
2021/06/11 04:44:53;;;;;;;;;;;22.10;46.90;;;;;;1473556;40;19952;-60
2021/06/11 04:46:14;;;;;;;;;;;22.10;46.60;;;;;;1477454;40;20039;-60
2021/06/11 04:47:35;;;;;;;;;;;22.10;46.70;;;;;;1473941;40;19941;-61
2021/06/11 04:48:56;;;;;;;;;;;22.00;46.70;;;;;;1472279;40;20671;-61
2021/06/11 04:50:16;;;;;;;;;;;22.00;47.20;;;;;;1472817;40;19940;-61
2021/06/11 04:51:37;;;;;;;;;;;22.00;46.80;;;;;;1473529;40;19937;-60
2021/06/11 04:52:58;;;;;;;;;;;22.00;46.90;;;;;;1473516;40;19988;-60
2021/06/11 04:54:19;;;;;;;;;;;22.10;46.80;;;;;;1473140;40;19991;-61
2021/06/11 04:55:40;;;;;;;;;;;22.10;47.50;;;;;;1471880;40;19964;-61
2021/06/11 04:57:01;;;;;;;;;;;22.10;47.10;;;;;;1472682;40;20264;-60
2021/06/11 04:58:22;;;;;;;;;;;22.00;46.70;;;;;;1477167;40;19941;-60
2021/06/11 04:59:42;;;;;;;;;;;22.10;46.90;;;;;;1470706;40;19937;-61
2021/06/11 05:01:07;;;;;;;;;;;22.10;47.20;;;;;;1471364;40;19942;-61
2021/06/11 05:02:28;;;;;;;;;;;22.10;47.20;;;;;;1472865;40;19936;-61
2021/06/11 05:03:49;;;;;;;;;;;22.10;47.60;;;;;;1473077;40;19941;-60
2021/06/11 05:05:10;;;;;;;;;;;22.10;47.80;;;;;;1472767;40;20279;-60
2021/06/11 05:06:31;;;;;;;;;;;22.10;47.30;;;;;;1473333;40;19937;-61
2021/06/11 05:07:52;;;;;;;;;;;22.10;48.60;;;;;;1473892;40;19945;-61
2021/06/11 05:09:12;;;;;;;;;;;22.10;49.10;;;;;;1472341;40;19937;-61
2021/06/11 05:10:34;;;;;;;;;;;22.10;49.20;;;;;;1472185;40;19944;-61
2021/06/11 05:11:55;;;;;;;;;;;22.10;50.10;;;;;;1469078;40;19945;-61
2021/06/11 05:13:15;;;;;;;;;;;22.10;49.20;;;;;;1467407;40;19964;-61
2021/06/11 05:14:36;;;;;;;;;;;22.10;49.30;;;;;;1471132;40;19959;-59
2021/06/11 05:15:57;;;;;;;;;;;22.10;49.30;;;;;;1476860;40;19968;-59
2021/06/11 05:17:18;;;;;;;;;;;22.10;48.90;;;;;;1477282;40;20450;-61
2021/06/11 05:18:39;;;;;;;;;;;22.10;48.80;;;;;;1474950;40;20340;-61
2021/06/11 05:20:00;;;;;;;;;;;22.10;48.20;;;;;;1472751;40;19941;-60
2021/06/11 05:21:21;;;;;;;;;;;22.10;48.90;;;;;;1474769;40;19941;-61
2021/06/11 05:22:42;;;;;;;;;;;22.10;47.90;;;;;;1475916;40;19947;-61
2021/06/11 05:24:03;;;;;;;;;;;22.10;48.10;;;;;;1476888;40;19951;-58
2021/06/11 05:25:24;;;;;;;;;;;22.10;48.00;;;;;;1475707;40;19933;-59
2021/06/11 05:26:45;;;;;;;;;;;22.10;47.60;;;;;;1476827;40;19941;-59
2021/06/11 05:28:06;;;;;;;;;;;22.10;48.80;;;;;;1476929;40;20042;-59
2021/06/11 05:29:27;;;;;;;;;;;22.10;50.00;;;;;;1477295;40;19947;-58
2021/06/11 05:30:48;;;;;;;;;;;22.10;49.90;;;;;;1477214;40;19940;-59
2021/06/11 05:32:09;;;;;;;;;;;22.10;49.80;;;;;;1477613;40;20033;-59
2021/06/11 05:33:30;;;;;;;;;;;22.10;49.80;;;;;;1477369;40;19933;-61
2021/06/11 05:34:51;;;;;;;;;;;22.10;49.30;;;;;;1476868;40;19940;-59
2021/06/11 05:36:12;;;;;;;;;;;22.10;49.20;;;;;;1477244;40;19933;-60
2021/06/11 05:37:32;;;;;;;;;;;22.10;49.10;;;;;;1477080;40;19936;-61
2021/06/11 05:38:53;;;;;;;;;;;22.10;49.00;;;;;;1477516;40;19952;-61
2021/06/11 05:40:14;;;;;;;;;;;22.10;49.00;;;;;;1477760;40;19943;-61
2021/06/11 05:41:35;;;;;;;;;;;22.10;48.90;;;;;;1477365;40;19940;-61
2021/06/11 05:42:56;;;;;;;;;;;22.20;49.10;;;;;;1476927;40;19977;-61
2021/06/11 05:44:17;;;;;;;;;;;22.20;49.20;;;;;;1477624;40;19947;-60
2021/06/11 05:45:38;;;;;;;;;;;22.20;49.20;;;;;;1474729;40;20008;-61
2021/06/11 05:46:59;;;;;;;;;;;22.20;49.10;;;;;;1476955;40;19952;-61
2021/06/11 05:48:20;;;;;;;;;;;22.20;49.10;;;;;;1476994;40;19986;-60
2021/06/11 05:49:40;;;;;;;;;;;22.30;49.30;;;;;;1477755;40;19937;-60
2021/06/11 05:51:01;;;;;;;;;;;22.30;49.10;;;;;;1477267;40;19942;-60
2021/06/11 05:52:22;;;;;;;;;;;22.30;49.10;;;;;;1477453;40;19992;-60
2021/06/11 05:53:43;;;;;;;;;;;22.30;49.30;;;;;;1477762;40;20731;-60
2021/06/11 05:55:04;;;;;;;;;;;22.30;49.20;;;;;;1472376;40;19945;-59
2021/06/11 05:56:27;;;;;;;;;;;22.40;49.20;;;;;;1475416;40;19952;-61
2021/06/11 05:57:48;;;;;;;;;;;22.40;49.40;;;;;;1476761;40;19936;-59
2021/06/11 05:59:09;;;;;;;;;;;22.40;49.20;;;;;;1477802;40;20339;-60
2021/06/11 06:00:30;;;;;;;;;;;22.40;49.20;;;;;;1477189;40;19947;-60
2021/06/11 06:01:51;;;;;;;;;;;22.40;49.20;;;;;;1477437;40;20267;-60
2021/06/11 06:03:12;;;;;;;;;;;22.40;49.20;;;;;;1476725;40;21207;-60
2021/06/11 06:04:32;;;;;;;;;;;22.40;49.20;;;;;;1477597;40;20262;-60
2021/06/11 06:05:53;;;;;;;;;;;22.50;49.20;;;;;;1477727;40;20316;-60
2021/06/11 06:07:14;;;;;;;;;;;22.50;49.30;;;;;;1477569;40;19989;-60
2021/06/11 06:08:35;;;;;;;;;;;22.50;49.30;;;;;;1475722;40;19936;-60
2021/06/11 06:09:57;;;;;;;;;;;22.50;49.40;;;;;;1474957;40;19956;-60
2021/06/11 06:11:17;;;;;;;;;;;22.50;50.00;;;;;;1477652;40;20258;-60
2021/06/11 06:12:38;;;;;;;;;;;22.50;49.40;;;;;;1478178;40;21231;-60
2021/06/11 06:13:59;;;;;;;;;;;22.60;49.40;;;;;;1476291;40;19942;-60
2021/06/11 06:15:20;;;;;;;;;;;22.60;49.30;;;;;;1473845;40;20465;-60
2021/06/11 06:16:36;;;;;;;;;;;22.60;49.30;;;;;;1513147;23;19956;-60
2021/06/11 06:17:56;;;;;;;;;;;22.60;49.50;;;;;;1482675;40;19948;-60
2021/06/11 06:20:24;;;;;;;;;;;22.60;49.50;;;;;;2474585;23;19932;-61
2021/06/11 06:21:44;;;;;;;;;;;22.70;49.50;;;;;;1481900;40;20194;-60
2021/06/11 06:23:03;;;;;;;;;;;22.70;49.60;;;;;;1481833;40;19921;-60
2021/06/11 06:24:18;;;;;;;;;;;22.70;49.70;;;;;;1888833;22;19948;-60
2021/06/11 06:25:39;;;;;;;;;;;22.70;49.60;;;;;;1475414;40;19991;-61
2021/06/11 06:27:00;;;;;;;;;;;22.70;49.70;;;;;;1476878;40;19943;-60
2021/06/11 06:28:21;;;;;;;;;;;22.80;49.50;;;;;;1479322;40;19932;-60
2021/06/11 06:29:41;;;;;;;;;;;22.80;49.50;;;;;;1479089;40;19941;-60
2021/06/11 06:31:02;;;;;;;;;;;22.80;50.20;;;;;;1477811;40;20078;-61
2021/06/11 06:32:24;;;;;;;;;;;22.80;50.10;;;;;;1477239;40;19936;-60
2021/06/11 06:33:45;;;;;;;;;;;22.90;50.10;;;;;;1482293;40;19968;-60
2021/06/11 06:35:08;;;;;;;;;;;22.90;50.00;;;;;;1478040;40;19948;-60
2021/06/11 06:36:29;;;;;;;;;;;22.90;50.20;;;;;;1478578;40;19997;-60
2021/06/11 06:37:50;;;;;;;;;;;22.90;50.70;;;;;;1474678;40;19937;-60
2021/06/11 06:39:11;;;;;;;;;;;23.00;50.50;;;;;;1476317;40;19933;-61
2021/06/11 06:40:32;;;;;;;;;;;23.00;50.40;;;;;;1477884;40;20331;-61
2021/06/11 06:41:58;;;;;;;;;;;23.00;50.10;;;;;;1475839;40;19980;-61
2021/06/11 06:43:19;;;;;;;;;;;23.00;50.00;;;;;;1479110;40;19964;-61
2021/06/11 06:44:40;;;;;;;;;;;23.10;50.20;;;;;;1478878;40;19932;-60
2021/06/11 06:46:01;;;;;;;;;;;23.10;49.80;;;;;;1477342;40;19951;-61
2021/06/11 06:47:22;;;;;;;;;;;23.20;50.00;;;;;;1478255;40;19932;-60
2021/06/11 06:48:43;;;;;;;;;;;23.20;50.00;;;;;;1477416;40;19935;-60
2021/06/11 06:50:04;;;;;;;;;;;23.20;50.00;;;;;;1476674;40;21380;-60
2021/06/11 06:51:26;;;;;;;;;;;23.20;50.00;;;;;;1477767;40;20022;-60
2021/06/11 06:52:52;;;;;;;;;;;23.30;50.00;;;;;;1479402;40;19944;-60
2021/06/11 06:54:13;;;;;;;;;;;23.30;50.00;;;;;;1478782;40;20181;-60
2021/06/11 06:55:34;;;;;;;;;;;23.30;50.30;;;;;;1477851;40;19936;-60
2021/06/11 06:56:55;;;;;;;;;;;23.30;50.40;;;;;;1477545;40;20217;-60
2021/06/11 06:58:15;;;;;;;;;;;23.30;50.20;;;;;;1479767;40;19933;-60
2021/06/11 06:59:36;;;;;;;;;;;23.40;50.10;;;;;;1479360;40;19935;-60
2021/06/11 07:00:57;;;;;;;;;;;23.40;50.00;;;;;;1478453;40;19983;-60
2021/06/11 07:02:18;;;;;;;;;;;23.40;50.30;;;;;;1479369;40;19979;-60
2021/06/11 07:03:39;;;;;;;;;;;23.40;50.00;;;;;;1479009;40;19939;-61
2021/06/11 07:04:59;;;;;;;;;;;23.40;50.70;;;;;;1477497;40;19937;-60
2021/06/11 07:06:20;;;;;;;;;;;23.50;50.40;;;;;;1478345;40;20263;-60
2021/06/11 07:07:41;;;;;;;;;;;23.50;50.20;;;;;;1479684;40;20483;-60
2021/06/11 07:09:02;;;;;;;;;;;23.50;50.20;;;;;;1476384;40;19991;-61
2021/06/11 07:10:23;;;;;;;;;;;23.60;50.40;;;;;;1478927;40;19952;-61
2021/06/11 07:11:44;;;;;;;;;;;23.60;50.70;;;;;;1478628;40;19929;-61
2021/06/11 07:13:05;;;;;;;;;;;23.70;50.50;;;;;;1478308;40;20273;-60
2021/06/11 07:14:27;;;;;;;;;;;23.60;50.30;;;;;;1479215;40;19933;-60
2021/06/11 07:15:48;;;;;;;;;;;23.70;50.20;;;;;;1478476;40;20345;-61
2021/06/11 07:17:08;;;;;;;;;;;23.70;50.20;;;;;;1478455;40;20258;-60
2021/06/11 07:18:29;;;;;;;;;;;23.80;50.30;;;;;;1479209;40;19937;-60
2021/06/11 07:19:50;;;;;;;;;;;23.70;50.20;;;;;;1479370;40;19943;-60
2021/06/11 07:21:12;;;;;;;;;;;23.80;50.60;;;;;;1478753;40;19936;-60
2021/06/11 07:22:33;;;;;;;;;;;23.80;50.30;;;;;;1478325;40;19936;-61
2021/06/11 07:23:55;;;;;;;;;;;23.80;50.30;;;;;;1478776;40;19942;-61
2021/06/11 07:25:15;;;;;;;;;;;23.90;50.80;;;;;;1478755;40;19929;-61
2021/06/11 07:26:37;;;;;;;;;;;23.90;50.40;;;;;;1478680;40;19947;-61
2021/06/11 07:27:57;;;;;;;;;;;23.90;50.20;;;;;;1478287;40;19933;-61
2021/06/11 07:29:18;;;;;;;;;;;23.90;50.50;;;;;;1478268;40;19928;-60
2021/06/11 07:30:39;;;;;;;;;;;24.00;50.30;;;;;;1479383;40;19940;-61
2021/06/11 07:32:00;;;;;;;;;;;23.90;50.30;;;;;;1478112;40;19941;-60
2021/06/11 07:33:21;;;;;;;;;;;24.00;50.50;;;;;;1478006;40;19932;-60
2021/06/11 07:34:42;;;;;;;;;;;24.00;50.20;;;;;;1479274;40;19934;-60
2021/06/11 07:36:03;;;;;;;;;;;24.00;50.50;;;;;;1478186;40;19936;-60
2021/06/11 07:37:24;;;;;;;;;;;24.10;51.00;;;;;;1479202;40;20495;-61
2021/06/11 07:38:45;;;;;;;;;;;24.10;50.70;;;;;;1478344;40;20416;-61
2021/06/11 07:40:07;;;;;;;;;;;24.10;50.60;;;;;;1477330;40;19941;-61
2021/06/11 07:41:27;;;;;;;;;;;24.20;50.70;;;;;;1478240;40;19938;-60
2021/06/11 07:42:48;;;;;;;;;;;24.20;50.40;;;;;;1478478;40;19944;-60
2021/06/11 07:44:09;;;;;;;;;;;24.20;51.10;;;;;;1477554;40;20508;-59
2021/06/11 07:45:30;;;;;;;;;;;24.30;50.40;;;;;;1479817;40;20241;-60
2021/06/11 07:46:51;;;;;;;;;;;24.30;50.30;;;;;;1478126;40;19948;-60
2021/06/11 07:48:12;;;;;;;;;;;24.30;50.30;;;;;;1478461;40;20232;-59
2021/06/11 07:49:33;;;;;;;;;;;24.30;50.40;;;;;;1478455;40;20352;-60
2021/06/11 07:50:54;;;;;;;;;;;24.30;50.30;;;;;;1479015;40;19937;-60
2021/06/11 07:52:15;;;;;;;;;;;24.40;50.10;;;;;;1477620;40;19971;-60
2021/06/11 07:53:35;;;;;;;;;;;24.40;50.30;;;;;;1474444;40;19941;-60
2021/06/11 07:54:59;;;;;;;;;;;24.40;50.40;;;;;;1481500;40;20070;-60
2021/06/11 07:56:20;;;;;;;;;;;24.50;50.40;;;;;;1478797;40;20018;-60